createdAt,value
2018-11-03T00:01:00.618Z,19.17
2018-11-03T00:03:29.266Z,20.03
2018-11-03T00:05:58.039Z,18.20
2018-11-03T00:08:26.843Z,17.40
2018-11-03T00:10:55.395Z,19.53
2018-11-03T00:13:24.233Z,20.10
2018-11-03T00:15:52.771Z,18.27
2018-11-03T00:18:21.319Z,20.07
2018-11-03T00:20:49.849Z,20.07
2018-11-03T00:23:18.879Z,20.07
2018-11-03T00:25:47.418Z,20.20
2018-11-03T00:28:15.990Z,17.63
2018-11-03T00:30:44.549Z,17.23
2018-11-03T00:33:13.109Z,17.27
2018-11-03T00:35:41.673Z,19.43
2018-11-03T00:38:10.200Z,16.93
2018-11-03T00:40:38.800Z,16.97
2018-11-03T00:43:07.293Z,17.50
2018-11-03T00:45:35.825Z,19.10
2018-11-03T00:48:04.358Z,17.83
2018-11-03T00:50:32.926Z,18.67
2018-11-03T00:53:01.545Z,20.60
2018-11-03T00:55:30.103Z,23.23
2018-11-03T00:57:58.660Z,17.80
2018-11-03T01:00:27.368Z,16.70
2018-11-03T01:02:55.907Z,15.03
2018-11-03T01:05:24.684Z,17.67
2018-11-03T01:07:53.221Z,20.40
2018-11-03T01:10:21.853Z,18.00
2018-11-03T01:12:50.789Z,16.57
2018-11-03T01:15:19.323Z,16.63
2018-11-03T01:17:47.845Z,19.53
2018-11-03T01:20:17.433Z,16.53
2018-11-03T01:22:46.193Z,16.77
2018-11-03T01:25:14.813Z,19.47
2018-11-03T01:27:43.352Z,17.90
2018-11-03T01:30:16.795Z,19.17
2018-11-03T01:32:45.543Z,14.97
2018-11-03T01:35:14.100Z,16.30
2018-11-03T01:37:42.665Z,17.67
2018-11-03T01:40:12.890Z,17.70
2018-11-03T01:42:41.517Z,17.87
2018-11-03T01:45:10.174Z,14.53
2018-11-03T01:47:38.707Z,18.23
2018-11-03T01:50:09.058Z,15.90
2018-11-03T01:52:38.218Z,14.90
2018-11-03T01:55:07.424Z,14.73
2018-11-03T01:57:36.501Z,15.17
2018-11-03T02:00:05.564Z,15.20
2018-11-03T02:02:34.095Z,13.97
2018-11-03T02:05:02.766Z,17.10
2018-11-03T02:07:31.262Z,14.90
2018-11-03T02:09:59.812Z,18.10
2018-11-03T02:12:28.417Z,15.33
2018-11-03T02:14:56.963Z,15.40
2018-11-03T02:17:26.110Z,16.87
2018-11-03T02:19:54.721Z,12.57
2018-11-03T02:22:23.238Z,17.23
2018-11-03T02:24:51.777Z,14.90
2018-11-03T02:27:20.318Z,13.60
2018-11-03T02:29:48.964Z,15.60
2018-11-03T02:32:17.514Z,13.97
2018-11-03T02:34:46.051Z,13.00
2018-11-03T02:37:14.578Z,17.20
2018-11-03T02:39:43.117Z,14.50
2018-11-03T02:42:11.618Z,13.47
2018-11-03T02:44:40.141Z,14.70
2018-11-03T02:47:08.659Z,16.97
2018-11-03T02:49:37.247Z,16.13
2018-11-03T02:52:05.809Z,14.70
2018-11-03T02:54:34.369Z,15.10
2018-11-03T02:57:02.879Z,17.10
2018-11-03T02:59:31.460Z,18.50
2018-11-03T03:01:59.949Z,16.47
2018-11-03T03:04:28.545Z,13.83
2018-11-03T03:06:57.124Z,13.70
2018-11-03T03:09:25.671Z,13.17
2018-11-03T03:11:54.184Z,13.30
2018-11-03T03:14:22.714Z,19.50
2018-11-03T03:16:51.715Z,15.00
2018-11-03T03:19:20.245Z,18.30
2018-11-03T03:21:48.835Z,13.93
2018-11-03T03:24:17.334Z,14.80
2018-11-03T03:26:45.891Z,14.40
2018-11-03T03:29:14.425Z,14.43
2018-11-03T03:31:42.967Z,13.77
2018-11-03T03:34:11.474Z,15.60
2018-11-03T03:36:39.995Z,22.50
2018-11-03T03:39:10.107Z,13.17
2018-11-03T03:41:38.911Z,16.47
2018-11-03T03:44:07.552Z,16.23
2018-11-03T03:46:36.288Z,14.47
2018-11-03T03:49:05.015Z,14.47
2018-11-03T03:51:33.559Z,17.53
2018-11-03T03:54:02.111Z,15.43
2018-11-03T03:56:30.657Z,16.80
2018-11-03T03:58:59.166Z,14.83
2018-11-03T04:01:29.181Z,17.93
2018-11-03T04:03:57.706Z,21.20
2018-11-03T04:06:26.290Z,15.70
2018-11-03T04:08:54.836Z,12.10
2018-11-03T04:11:23.389Z,12.93
2018-11-03T04:13:51.892Z,15.30
2018-11-03T04:16:20.628Z,12.53
2018-11-03T04:18:49.166Z,14.30
2018-11-03T04:21:22.170Z,15.50
2018-11-03T04:23:50.727Z,11.43
2018-11-03T04:26:19.312Z,16.57
2018-11-03T04:28:47.871Z,12.77
2018-11-03T04:31:16.492Z,15.07
2018-11-03T04:33:45.585Z,15.30
2018-11-03T04:36:14.390Z,17.93
2018-11-03T04:38:42.913Z,17.47
2018-11-03T04:41:11.467Z,16.63
2018-11-03T04:43:40.019Z,16.37
2018-11-03T04:46:08.839Z,13.30
2018-11-03T04:48:37.691Z,16.00
2018-11-03T04:51:06.907Z,16.43
2018-11-03T04:53:35.588Z,12.27
2018-11-03T04:56:04.398Z,14.07
2018-11-03T04:58:32.927Z,19.73
2018-11-03T05:01:01.507Z,16.47
2018-11-03T05:03:30.025Z,13.23
2018-11-03T05:05:58.574Z,20.30
2018-11-03T05:08:27.137Z,15.73
2018-11-03T05:10:55.671Z,12.67
2018-11-03T05:13:24.181Z,14.50
2018-11-03T05:15:52.713Z,15.47
2018-11-03T05:18:21.222Z,14.33
2018-11-03T05:20:49.792Z,14.03
2018-11-03T05:23:18.401Z,13.10
2018-11-03T05:25:46.961Z,12.00
2018-11-03T05:28:15.485Z,12.67
2018-11-03T05:30:44.035Z,13.90
2018-11-03T05:33:12.555Z,13.57
2018-11-03T05:35:41.131Z,13.10
2018-11-03T05:38:09.638Z,13.37
2018-11-03T05:40:38.339Z,17.43
2018-11-03T05:43:06.862Z,12.13
2018-11-03T05:45:35.513Z,12.60
2018-11-03T05:48:04.089Z,12.07
2018-11-03T05:50:32.600Z,12.80
2018-11-03T05:53:01.140Z,12.70
2018-11-03T05:55:29.702Z,12.77
2018-11-03T05:57:58.197Z,12.20
2018-11-03T06:00:27.711Z,11.47
2018-11-03T06:02:57.605Z,18.07
2018-11-03T06:05:26.458Z,13.77
2018-11-03T06:07:55.348Z,13.47
2018-11-03T06:10:23.922Z,15.53
2018-11-03T06:12:52.535Z,14.60
2018-11-03T06:15:21.275Z,14.23
2018-11-03T06:17:49.749Z,15.93
2018-11-03T06:20:18.273Z,13.90
2018-11-03T06:22:46.993Z,15.30
2018-11-03T06:25:15.431Z,13.77
2018-11-03T06:27:43.996Z,14.53
2018-11-03T06:30:12.565Z,12.70
2018-11-03T06:32:41.107Z,11.23
2018-11-03T06:35:10.667Z,13.80
2018-11-03T06:37:39.499Z,11.00
2018-11-03T06:40:08.884Z,16.40
2018-11-03T06:42:38.110Z,13.23
2018-11-03T06:45:08.082Z,16.83
2018-11-03T06:47:36.679Z,10.50
2018-11-03T06:50:06.836Z,10.20
2018-11-03T06:52:35.368Z,13.43
2018-11-03T06:55:03.930Z,13.87
2018-11-03T06:57:32.508Z,14.63
2018-11-03T07:00:01.024Z,12.50
2018-11-03T07:02:29.814Z,12.03
2018-11-03T07:04:58.444Z,12.03
2018-11-03T07:07:26.913Z,11.97
2018-11-03T07:09:55.589Z,11.33
2018-11-03T07:12:24.264Z,11.97
2018-11-03T07:14:52.759Z,13.00
2018-11-03T07:17:21.339Z,12.13
2018-11-03T07:19:49.858Z,13.17
2018-11-03T07:22:18.461Z,14.40
2018-11-03T07:24:47.049Z,13.77
2018-11-03T07:27:15.597Z,9.73
2018-11-03T07:29:44.173Z,12.17
2018-11-03T07:32:12.682Z,11.23
2018-11-03T07:34:41.188Z,12.23
2018-11-03T07:37:09.740Z,11.23
2018-11-03T07:39:38.291Z,14.83
2018-11-03T07:42:07.182Z,10.00
2018-11-03T07:44:35.695Z,11.80
2018-11-03T07:47:04.363Z,11.53
2018-11-03T07:49:32.882Z,14.40
2018-11-03T07:52:01.565Z,10.63
2018-11-03T07:54:30.829Z,10.80
2018-11-03T07:56:59.362Z,12.03
2018-11-03T07:59:27.938Z,15.10
2018-11-03T08:01:56.479Z,11.93
2018-11-03T08:04:25.047Z,12.60
2018-11-03T08:06:53.614Z,13.00
2018-11-03T08:09:22.199Z,13.73
2018-11-03T08:11:50.727Z,12.23
2018-11-03T08:14:19.268Z,12.63
2018-11-03T08:16:47.806Z,17.63
2018-11-03T08:19:16.332Z,15.90
2018-11-03T08:21:44.949Z,12.80
2018-11-03T08:24:13.479Z,12.43
2018-11-03T08:26:42.017Z,13.50
2018-11-03T08:29:10.676Z,11.83
2018-11-03T08:31:39.593Z,15.50
2018-11-03T08:34:08.034Z,13.13
2018-11-03T08:36:36.593Z,12.40
2018-11-03T08:39:07.088Z,14.30
2018-11-03T08:41:35.631Z,11.87
2018-11-03T08:44:04.182Z,12.50
2018-11-03T08:46:33.355Z,14.77
2018-11-03T08:49:02.021Z,14.37
2018-11-03T08:51:30.654Z,11.87
2018-11-03T08:53:59.162Z,11.33
2018-11-03T08:56:27.716Z,13.57
2018-11-03T08:58:56.737Z,15.10
2018-11-03T09:01:26.162Z,11.23
2018-11-03T09:03:55.649Z,19.40
2018-11-03T09:06:25.673Z,19.90
2018-11-03T09:08:54.277Z,14.67
2018-11-03T09:11:22.880Z,18.23
2018-11-03T09:13:51.458Z,15.43
2018-11-03T09:16:20.156Z,14.33
2018-11-03T09:18:48.715Z,18.07
2018-11-03T09:21:17.407Z,13.80
2018-11-03T09:23:46.333Z,13.97
2018-11-03T09:26:14.911Z,16.33
2018-11-03T09:28:44.219Z,14.60
2018-11-03T09:31:13.173Z,15.33
2018-11-03T09:33:41.872Z,14.07
2018-11-03T09:36:10.419Z,15.97
2018-11-03T09:38:39.121Z,16.70
2018-11-03T09:41:07.589Z,16.30
2018-11-03T09:43:36.298Z,17.00
2018-11-03T09:46:05.030Z,20.72
2018-11-03T09:48:33.639Z,14.43
2018-11-03T09:51:02.217Z,15.53
2018-11-03T09:53:30.877Z,17.13
2018-11-03T09:55:59.416Z,16.93
2018-11-03T09:58:28.968Z,17.70
2018-11-03T10:00:57.515Z,18.80
2018-11-03T10:03:26.090Z,17.20
2018-11-03T10:05:54.643Z,21.43
2018-11-03T10:08:23.229Z,18.90
2018-11-03T10:10:51.781Z,21.53
2018-11-03T10:13:20.397Z,18.03
2018-11-03T10:15:48.990Z,18.60
2018-11-03T10:18:17.611Z,18.40
2018-11-03T10:20:46.210Z,15.80
2018-11-03T10:23:14.754Z,17.80
2018-11-03T10:25:43.866Z,17.80
2018-11-03T10:28:12.800Z,17.70
2018-11-03T10:30:41.776Z,18.07
2018-11-03T10:33:10.856Z,22.70
2018-11-03T10:35:39.842Z,19.50
2018-11-03T10:38:08.422Z,19.23
2018-11-03T10:40:38.127Z,17.70
2018-11-03T10:43:07.556Z,18.73
2018-11-03T10:45:36.947Z,17.80
2018-11-03T10:48:05.755Z,17.40
2018-11-03T10:50:34.507Z,18.33
2018-11-03T10:53:03.116Z,19.13
2018-11-03T10:55:31.684Z,21.50
2018-11-03T10:58:00.494Z,20.13
2018-11-03T11:00:34.423Z,21.23
2018-11-03T11:03:08.340Z,17.73
2018-11-03T11:06:42.172Z,19.57
2018-11-03T11:09:16.236Z,18.40
2018-11-03T11:11:50.082Z,21.93
2018-11-03T11:14:19.951Z,20.00
2018-11-03T11:16:49.153Z,19.07
2018-11-03T11:19:17.852Z,17.50
2018-11-03T11:21:46.455Z,17.23
2018-11-03T11:24:15.252Z,20.57
2018-11-03T11:26:43.707Z,23.47
2018-11-03T11:29:12.478Z,20.60
2018-11-03T11:31:41.033Z,19.97
2018-11-03T11:34:09.633Z,19.43
2018-11-03T11:36:38.222Z,21.37
2018-11-03T11:39:07.921Z,23.57
2018-11-03T11:41:36.551Z,26.03
2018-11-03T11:44:05.420Z,21.50
2018-11-03T11:46:33.955Z,22.77
2018-11-03T11:49:02.518Z,21.50
2018-11-03T11:51:31.149Z,23.17
2018-11-03T11:53:59.734Z,24.10
2018-11-03T11:56:28.268Z,24.10
2018-11-03T11:58:56.847Z,21.17
2018-11-03T12:01:25.402Z,26.67
2018-11-03T12:03:54.009Z,23.97
2018-11-03T12:06:22.656Z,20.90
2018-11-03T12:08:51.243Z,19.43
2018-11-03T12:11:19.820Z,18.97
2018-11-03T12:13:48.413Z,32.63
2018-11-03T12:16:17.065Z,25.50
2018-11-03T12:18:45.552Z,25.23
2018-11-03T12:21:14.114Z,22.73
2018-11-03T12:23:42.720Z,25.20
2018-11-03T12:26:11.352Z,21.97
2018-11-03T12:28:39.903Z,23.93
2018-11-03T12:31:08.490Z,21.90
2018-11-03T12:33:37.051Z,23.30
2018-11-03T12:36:06.124Z,23.83
2018-11-03T12:38:34.699Z,31.03
2018-11-03T12:41:03.339Z,25.20
2018-11-03T12:43:31.851Z,22.30
2018-11-03T12:46:00.484Z,25.40
2018-11-03T12:48:29.189Z,26.20
2018-11-03T12:50:57.657Z,21.80
2018-11-03T12:53:26.260Z,27.50
2018-11-03T12:55:54.818Z,25.80
2018-11-03T12:58:23.574Z,26.00
2018-11-03T13:00:52.187Z,24.47
2018-11-03T13:03:20.801Z,24.90
2018-11-03T13:05:49.332Z,24.80
2018-11-03T13:08:17.922Z,25.90
2018-11-03T13:10:46.505Z,30.07
2018-11-03T13:13:15.071Z,27.50
2018-11-03T13:15:43.670Z,26.60
2018-11-03T13:18:12.228Z,26.90
2018-11-03T13:20:40.813Z,30.77
2018-11-03T13:23:09.332Z,32.80
2018-11-03T13:25:37.988Z,27.13
2018-11-03T13:28:06.836Z,27.75
2018-11-03T13:30:35.424Z,27.77
2018-11-03T13:33:03.999Z,31.60
2018-11-03T13:35:33.231Z,23.57
2018-11-03T13:38:01.929Z,25.20
2018-11-03T13:40:30.492Z,22.70
2018-11-03T13:42:59.738Z,24.57
2018-11-03T13:45:28.301Z,25.33
2018-11-03T13:47:56.920Z,23.83
2018-11-03T13:50:25.486Z,19.70
2018-11-03T13:52:54.050Z,24.30
2018-11-03T13:55:22.637Z,23.90
2018-11-03T13:57:51.740Z,21.67
2018-11-03T14:00:20.416Z,23.20
2018-11-03T14:02:49.281Z,25.13
2018-11-03T14:05:17.891Z,22.93
2018-11-03T14:07:46.465Z,19.70
2018-11-03T14:10:16.198Z,21.80
2018-11-03T14:12:45.783Z,21.70
2018-11-03T14:15:15.775Z,21.57
2018-11-03T14:17:44.465Z,18.07
2018-11-03T14:20:14.295Z,18.80
2018-11-03T14:22:43.749Z,20.97
2018-11-03T14:25:13.753Z,21.83
2018-11-03T14:27:44.476Z,17.80
2018-11-03T14:30:13.671Z,25.50
2018-11-03T14:32:42.254Z,22.83
2018-11-03T14:35:11.768Z,21.37
2018-11-03T14:37:40.919Z,20.10
2018-11-03T14:40:12.014Z,19.73
2018-11-03T14:42:41.568Z,23.37
2018-11-03T14:45:11.231Z,22.50
2018-11-03T14:47:39.866Z,27.50
2018-11-03T14:50:09.334Z,24.23
2018-11-03T14:52:39.023Z,21.30
2018-11-03T14:55:08.928Z,24.93
2018-11-03T14:57:37.480Z,26.80
2018-11-03T15:00:11.780Z,25.57
2018-11-03T15:02:40.603Z,23.70
2018-11-03T15:05:10.006Z,23.70
2018-11-03T15:07:38.692Z,28.77
2018-11-03T15:10:08.648Z,31.80
2018-11-03T15:12:37.198Z,31.23
2018-11-03T15:15:07.104Z,33.73
2018-11-03T15:17:35.567Z,30.90
2018-11-03T15:20:04.630Z,30.10
2018-11-03T15:22:33.172Z,31.83
2018-11-03T15:25:01.829Z,30.13
2018-11-03T15:27:31.012Z,31.10
2018-11-03T15:29:59.706Z,35.20
2018-11-03T15:32:28.968Z,30.90
2018-11-03T15:34:57.592Z,31.67
2018-11-03T15:37:26.142Z,33.60
2018-11-03T15:39:56.114Z,29.53
2018-11-03T15:42:24.681Z,28.60
2018-11-03T15:44:53.243Z,29.03
2018-11-03T15:47:21.763Z,36.30
2018-11-03T15:49:50.366Z,30.87
2018-11-03T15:52:18.973Z,31.50
2018-11-03T15:54:47.500Z,38.40
2018-11-03T15:57:16.395Z,30.00
2018-11-03T15:59:45.070Z,32.33
2018-11-03T16:02:13.682Z,29.70
2018-11-03T16:04:42.193Z,33.10
2018-11-03T16:07:10.777Z,28.30
2018-11-03T16:09:39.339Z,38.53
2018-11-03T16:12:08.009Z,31.50
2018-11-03T16:14:36.454Z,34.50
2018-11-03T16:17:05.018Z,30.90
2018-11-03T16:19:33.614Z,29.43
2018-11-03T16:22:02.235Z,34.23
2018-11-03T16:24:30.742Z,34.00
2018-11-03T16:26:59.297Z,36.43
2018-11-03T16:29:27.814Z,34.97
2018-11-03T16:31:56.391Z,33.87
2018-11-03T16:34:24.945Z,38.43
2018-11-03T16:36:53.506Z,31.83
2018-11-03T16:39:22.637Z,33.10
2018-11-03T16:41:51.831Z,38.60
2018-11-03T16:44:20.370Z,33.63
2018-11-03T16:46:48.935Z,37.17
2018-11-03T16:49:20.245Z,37.37
2018-11-03T16:51:48.854Z,35.23
2018-11-03T16:54:17.402Z,39.23
2018-11-03T16:56:47.037Z,33.90
2018-11-03T16:59:15.687Z,40.00
2018-11-03T17:01:44.806Z,37.03
2018-11-03T17:04:13.516Z,41.93
2018-11-03T17:06:43.027Z,36.50
2018-11-03T17:09:11.556Z,39.60
2018-11-03T17:11:40.167Z,40.67
2018-11-03T17:14:08.742Z,37.00
2018-11-03T17:16:37.294Z,35.50
2018-11-03T17:19:05.847Z,42.03
2018-11-03T17:21:34.422Z,33.70
2018-11-03T17:24:02.970Z,35.57
2018-11-03T17:26:31.518Z,37.70
2018-11-03T17:29:00.063Z,40.80
2018-11-03T17:31:28.648Z,44.13
2018-11-03T17:33:57.177Z,38.27
2018-11-03T17:36:25.765Z,38.97
2018-11-03T17:38:54.266Z,37.03
2018-11-03T17:41:22.949Z,37.53
2018-11-03T17:43:51.548Z,40.53
2018-11-03T17:46:20.099Z,38.53
2018-11-03T17:48:49.187Z,39.07
2018-11-03T17:51:17.946Z,38.50
2018-11-03T17:53:46.473Z,32.77
2018-11-03T17:56:15.027Z,36.27
2018-11-03T17:58:43.572Z,37.60
2018-11-03T18:01:12.267Z,38.10
2018-11-03T18:03:40.737Z,35.03
2018-11-03T18:06:09.309Z,35.93
2018-11-03T18:08:37.854Z,37.03
2018-11-03T18:11:06.735Z,35.80
2018-11-03T18:13:35.948Z,35.47
2018-11-03T18:16:04.534Z,32.60
2018-11-03T18:18:33.515Z,33.70
2018-11-03T18:21:02.096Z,39.00
2018-11-03T18:23:30.619Z,40.27
2018-11-03T18:25:59.287Z,36.53
2018-11-03T18:28:28.060Z,33.60
2018-11-03T18:30:57.288Z,42.67
2018-11-03T18:33:25.912Z,39.20
2018-11-03T18:35:54.366Z,41.63
2018-11-03T18:38:22.903Z,34.87
2018-11-03T18:40:51.544Z,35.30
2018-11-03T18:43:20.131Z,36.00
2018-11-03T18:45:48.848Z,34.00
2018-11-03T18:48:17.419Z,36.63
2018-11-03T18:50:45.946Z,35.70
2018-11-03T18:53:14.524Z,32.30
2018-11-03T18:55:43.058Z,36.47
2018-11-03T18:58:11.645Z,31.93
2018-11-03T19:00:40.182Z,35.97
2018-11-03T19:03:08.759Z,34.83
2018-11-03T19:05:37.385Z,36.33
2018-11-03T19:08:06.475Z,35.80
2018-11-03T19:10:35.046Z,36.43
2018-11-03T19:13:03.687Z,42.60
2018-11-03T19:15:32.211Z,34.60
2018-11-03T19:18:00.817Z,35.23
2018-11-03T19:20:29.344Z,36.83
2018-11-03T19:22:57.875Z,35.57
2018-11-03T19:25:26.466Z,34.70
2018-11-03T19:27:55.038Z,29.77
2018-11-03T19:30:23.638Z,35.70
2018-11-03T19:32:52.167Z,35.50
2018-11-03T19:35:20.688Z,33.77
2018-11-03T19:37:49.247Z,35.13
2018-11-03T19:40:17.786Z,37.70
2018-11-03T19:42:46.357Z,30.27
2018-11-03T19:45:14.887Z,37.43
2018-11-03T19:47:43.516Z,31.67
2018-11-03T19:50:12.055Z,31.80
2018-11-03T19:52:40.612Z,32.23
2018-11-03T19:55:09.269Z,40.77
2018-11-03T19:57:37.892Z,28.77
2018-11-03T20:00:09.258Z,36.97
2018-11-03T20:02:38.018Z,35.20
2018-11-03T20:05:07.098Z,32.90
2018-11-03T20:07:35.678Z,31.33
2018-11-03T20:10:04.367Z,34.93
2018-11-03T20:12:32.923Z,36.70
2018-11-03T20:15:01.452Z,31.67
2018-11-03T20:17:30.033Z,35.00
2018-11-03T20:19:58.847Z,32.17
2018-11-03T20:22:27.540Z,35.70
2018-11-03T20:24:56.076Z,35.10
2018-11-03T20:27:24.722Z,36.53
2018-11-03T20:29:53.335Z,33.47
2018-11-03T20:32:21.969Z,32.43
2018-11-03T20:34:50.529Z,30.67
2018-11-03T20:37:19.136Z,32.37
2018-11-03T20:39:47.921Z,32.07
2018-11-03T20:42:16.485Z,34.27
2018-11-03T20:44:44.998Z,30.73
2018-11-03T20:47:13.636Z,29.83
2018-11-03T20:49:42.231Z,29.33
2018-11-03T20:52:11.136Z,30.33
2018-11-03T20:54:39.776Z,31.63
2018-11-03T20:57:08.483Z,31.87
2018-11-03T20:59:37.021Z,27.20
2018-11-03T21:02:05.646Z,28.10
2018-11-03T21:04:34.349Z,31.60
2018-11-03T21:07:02.886Z,30.70
2018-11-03T21:09:31.570Z,27.93
2018-11-03T21:12:00.290Z,32.57
2018-11-03T21:14:28.950Z,28.67
2018-11-03T21:16:57.468Z,28.60
2018-11-03T21:19:26.067Z,25.57
2018-11-03T21:21:54.623Z,27.83
2018-11-03T21:24:23.219Z,25.40
2018-11-03T21:26:51.806Z,26.87
2018-11-03T21:29:20.355Z,31.40
2018-11-03T21:31:49.135Z,27.30
2018-11-03T21:34:17.686Z,29.07
2018-11-03T21:36:46.283Z,26.20
2018-11-03T21:39:14.850Z,25.73
2018-11-03T21:41:43.389Z,25.63
2018-11-03T21:44:12.112Z,26.63
2018-11-03T21:46:40.815Z,23.50
2018-11-03T21:49:09.636Z,28.57
2018-11-03T21:51:38.251Z,24.40
2018-11-03T21:54:06.782Z,25.27
2018-11-03T21:56:35.401Z,24.10
2018-11-03T21:59:03.951Z,28.93
2018-11-03T22:01:32.585Z,24.53
2018-11-03T22:04:01.185Z,25.40
2018-11-03T22:06:29.880Z,26.33
2018-11-03T22:08:58.344Z,27.63
2018-11-03T22:11:26.921Z,26.63
2018-11-03T22:13:55.463Z,29.27
2018-11-03T22:16:24.091Z,30.90
2018-11-03T22:18:52.624Z,30.87
2018-11-03T22:21:21.178Z,29.80
2018-11-03T22:23:49.707Z,29.80
2018-11-03T22:26:18.436Z,31.73
2018-11-03T22:28:46.996Z,34.87
2018-11-03T22:31:15.670Z,30.83
2018-11-03T22:33:44.207Z,28.80
2018-11-03T22:36:12.748Z,30.93
2018-11-03T22:38:41.272Z,30.17
2018-11-03T22:41:09.931Z,29.87
2018-11-03T22:43:39.090Z,29.27
2018-11-03T22:46:07.656Z,31.63
2018-11-03T22:48:36.249Z,31.60
2018-11-03T22:51:05.117Z,34.83
2018-11-03T22:53:33.634Z,32.87
2018-11-03T22:56:02.524Z,33.93
2018-11-03T22:58:31.040Z,29.63
2018-11-03T23:00:59.683Z,33.63
2018-11-03T23:03:28.207Z,33.23
2018-11-03T23:05:56.761Z,30.70
2018-11-03T23:08:25.298Z,32.27
2018-11-03T23:10:53.859Z,34.47
2018-11-03T23:13:22.567Z,31.10
2018-11-03T23:15:51.082Z,32.87
2018-11-03T23:18:19.613Z,35.30
2018-11-03T23:20:48.196Z,38.23
2018-11-03T23:23:16.756Z,32.17
2018-11-03T23:25:45.378Z,32.77
2018-11-03T23:28:13.943Z,33.20
2018-11-03T23:30:42.521Z,33.27
2018-11-03T23:33:11.066Z,35.70
2018-11-03T23:35:39.590Z,35.77
2018-11-03T23:38:08.201Z,31.07
2018-11-03T23:40:36.701Z,31.93
2018-11-03T23:43:05.439Z,33.87
2018-11-03T23:45:33.978Z,29.67
2018-11-03T23:48:03.041Z,29.97
2018-11-03T23:50:31.583Z,38.10
2018-11-03T23:53:00.137Z,32.37
2018-11-03T23:55:28.666Z,33.00
2018-11-03T23:57:57.218Z,33.10
